sensor_id;sensor_type;location;lat;lon;timestamp;pressure;altitude;pressure_sealevel;temperature;humidity
59375;BME280;45172;55.006;73.460;2022-12-13T00:01:30;101561.94;;;-11.56;100.00
59375;BME280;45172;55.006;73.460;2022-12-13T00:04:06;101566.50;;;-11.61;100.00
59375;BME280;45172;55.006;73.460;2022-12-13T00:06:33;101565.41;;;-11.63;100.00
59375;BME280;45172;55.006;73.460;2022-12-13T00:09:00;101575.31;;;-11.59;100.00
59375;BME280;45172;55.006;73.460;2022-12-13T00:11:26;101573.25;;;-11.68;100.00
59375;BME280;45172;55.006;73.460;2022-12-13T00:13:53;101583.63;;;-11.74;100.00
59375;BME280;45172;55.006;73.460;2022-12-13T00:16:25;101551.41;;;-11.87;100.00
59375;BME280;45172;55.006;73.460;2022-12-13T00:18:58;101571.91;;;-11.79;100.00
59375;BME280;45172;55.006;73.460;2022-12-13T00:21:29;101577.19;;;-11.85;100.00
59375;BME280;45172;55.006;73.460;2022-12-13T00:23:56;101568.19;;;-11.96;100.00
59375;BME280;45172;55.006;73.460;2022-12-13T00:26:25;101584.25;;;-11.97;100.00
59375;BME280;45172;55.006;73.460;2022-12-13T00:28:55;101586.59;;;-11.99;100.00
59375;BME280;45172;55.006;73.460;2022-12-13T00:31:31;101582.56;;;-11.97;100.00
59375;BME280;45172;55.006;73.460;2022-12-13T00:33:58;101590.78;;;-11.99;100.00
59375;BME280;45172;55.006;73.460;2022-12-13T00:36:34;101594.47;;;-11.97;100.00
59375;BME280;45172;55.006;73.460;2022-12-13T00:39:00;101583.44;;;-12.11;100.00
59375;BME280;45172;55.006;73.460;2022-12-13T00:41:33;101601.38;;;-12.03;100.00
59375;BME280;45172;55.006;73.460;2022-12-13T00:44:01;101609.91;;;-12.10;100.00
59375;BME280;45172;55.006;73.460;2022-12-13T00:46:29;101589.41;;;-12.17;100.00
59375;BME280;45172;55.006;73.460;2022-12-13T00:49:00;101620.41;;;-12.21;100.00
59375;BME280;45172;55.006;73.460;2022-12-13T00:51:28;101611.09;;;-12.21;100.00
59375;BME280;45172;55.006;73.460;2022-12-13T00:54:00;101628.59;;;-12.24;100.00
59375;BME280;45172;55.006;73.460;2022-12-13T00:56:31;101615.47;;;-12.27;100.00
59375;BME280;45172;55.006;73.460;2022-12-13T00:58:58;101631.88;;;-12.25;100.00
59375;BME280;45172;55.006;73.460;2022-12-13T01:01:26;101639.34;;;-12.27;100.00
59375;BME280;45172;55.006;73.460;2022-12-13T01:03:53;101641.06;;;-12.20;100.00
59375;BME280;45172;55.006;73.460;2022-12-13T01:06:32;101647.00;;;-12.27;100.00
59375;BME280;45172;55.006;73.460;2022-12-13T01:09:01;101636.66;;;-12.41;100.00
59375;BME280;45172;55.006;73.460;2022-12-13T01:11:28;101644.69;;;-12.45;100.00
59375;BME280;45172;55.006;73.460;2022-12-13T01:13:54;101648.41;;;-12.56;73.34
59375;BME280;45172;55.006;73.460;2022-12-13T01:16:22;101656.06;;;-12.56;73.49
59375;BME280;45172;55.006;73.460;2022-12-13T01:18:48;101646.81;;;-12.69;73.83
59375;BME280;45172;55.006;73.460;2022-12-13T01:21:17;101657.44;;;-12.66;74.14
59375;BME280;45172;55.006;73.460;2022-12-13T01:23:44;101654.22;;;-12.77;74.16
59375;BME280;45172;55.006;73.460;2022-12-13T01:26:12;101652.91;;;-12.81;74.54
59375;BME280;45172;55.006;73.460;2022-12-13T01:28:39;101644.75;;;-12.91;75.13
59375;BME280;45172;55.006;73.460;2022-12-13T01:31:11;101636.94;;;-13.06;74.40
59375;BME280;45172;55.006;73.460;2022-12-13T01:33:37;101657.66;;;-12.97;75.12
59375;BME280;45172;55.006;73.460;2022-12-13T01:36:06;101659.09;;;-12.99;75.23
59375;BME280;45172;55.006;73.460;2022-12-13T01:38:32;101657.44;;;-12.99;75.38
59375;BME280;45172;55.006;73.460;2022-12-13T01:40:59;101647.78;;;-13.01;75.55
59375;BME280;45172;55.006;73.460;2022-12-13T01:45:58;101652.69;;;-13.03;76.15
59375;BME280;45172;55.006;73.460;2022-12-13T01:48:28;101651.16;;;-13.08;75.76
59375;BME280;45172;55.006;73.460;2022-12-13T01:51:00;101663.69;;;-13.10;76.08
59375;BME280;45172;55.006;73.460;2022-12-13T01:53:29;101661.06;;;-13.17;75.93
59375;BME280;45172;55.006;73.460;2022-12-13T01:56:02;101669.34;;;-13.12;75.84
59375;BME280;45172;55.006;73.460;2022-12-13T01:58:35;101647.53;;;-13.36;76.09
59375;BME280;45172;55.006;73.460;2022-12-13T02:01:03;101655.50;;;-13.40;75.88
59375;BME280;45172;55.006;73.460;2022-12-13T02:03:39;101682.44;;;-13.29;75.44
59375;BME280;45172;55.006;73.460;2022-12-13T02:06:20;101680.28;;;-13.39;75.21
59375;BME280;45172;55.006;73.460;2022-12-13T02:08:53;101675.91;;;-13.40;75.40
59375;BME280;45172;55.006;73.460;2022-12-13T02:11:19;101685.00;;;-13.42;75.34
59375;BME280;45172;55.006;73.460;2022-12-13T02:13:45;101696.97;;;-13.49;75.10
59375;BME280;45172;55.006;73.460;2022-12-13T02:16:34;101693.97;;;-13.52;76.16
59375;BME280;45172;55.006;73.460;2022-12-13T02:30:18;101705.94;;;-13.58;75.65
59375;BME280;45172;55.006;73.460;2022-12-13T02:36:05;101685.53;;;-13.71;76.01
59375;BME280;45172;55.006;73.460;2022-12-13T02:38:41;101706.84;;;-13.57;76.60
59375;BME280;45172;55.006;73.460;2022-12-13T02:43:58;101705.22;;;-13.57;76.90
59375;BME280;45172;55.006;73.460;2022-12-13T02:46:30;101684.94;;;-13.63;77.04
59375;BME280;45172;55.006;73.460;2022-12-13T02:48:58;101700.94;;;-13.51;77.05
59375;BME280;45172;55.006;73.460;2022-12-13T02:51:26;101707.38;;;-13.47;77.33
59375;BME280;45172;55.006;73.460;2022-12-13T02:53:57;101702.56;;;-13.51;77.43
59375;BME280;45172;55.006;73.460;2022-12-13T02:56:23;101695.66;;;-13.65;77.00
59375;BME280;45172;55.006;73.460;2022-12-13T02:59:00;101718.97;;;-13.62;76.90
59375;BME280;45172;55.006;73.460;2022-12-13T03:04:47;101735.50;;;-13.66;77.44
59375;BME280;45172;55.006;73.460;2022-12-13T03:08:19;101731.81;;;-13.68;76.54
59375;BME280;45172;55.006;73.460;2022-12-13T03:13:53;101713.03;;;-13.81;77.32
59375;BME280;45172;55.006;73.460;2022-12-13T03:19:00;101737.31;;;-13.78;77.22
59375;BME280;45172;55.006;73.460;2022-12-13T03:21:27;101740.28;;;-13.74;77.14
59375;BME280;45172;55.006;73.460;2022-12-13T03:23:58;101749.34;;;-13.77;76.97
59375;BME280;45172;55.006;73.460;2022-12-13T03:26:25;101734.53;;;-13.92;77.16
59375;BME280;45172;55.006;73.460;2022-12-13T03:28:52;101731.69;;;-14.01;77.03
59375;BME280;45172;55.006;73.460;2022-12-13T03:31:19;101761.13;;;-13.90;77.30
59375;BME280;45172;55.006;73.460;2022-12-13T03:33:45;101772.13;;;-13.97;77.00
59375;BME280;45172;55.006;73.460;2022-12-13T03:36:11;101762.53;;;-14.05;76.99
59375;BME280;45172;55.006;73.460;2022-12-13T03:38:39;101775.94;;;-14.19;76.13
59375;BME280;45172;55.006;73.460;2022-12-13T03:41:12;101772.97;;;-14.22;76.07
59375;BME280;45172;55.006;73.460;2022-12-13T03:43:44;101776.22;;;-14.23;76.92
59375;BME280;45172;55.006;73.460;2022-12-13T03:46:10;101781.03;;;-14.19;76.90
59375;BME280;45172;55.006;73.460;2022-12-13T03:48:42;101750.84;;;-14.29;77.08
59375;BME280;45172;55.006;73.460;2022-12-13T03:51:08;101759.81;;;-14.25;77.17
59375;BME280;45172;55.006;73.460;2022-12-13T03:53:39;101776.66;;;-14.20;77.45
59375;BME280;45172;55.006;73.460;2022-12-13T03:56:05;101783.59;;;-14.19;77.35
59375;BME280;45172;55.006;73.460;2022-12-13T03:58:33;101780.59;;;-14.22;76.86
59375;BME280;45172;55.006;73.460;2022-12-13T04:01:05;101787.13;;;-14.24;76.73
59375;BME280;45172;55.006;73.460;2022-12-13T04:03:32;101792.91;;;-14.25;77.17
59375;BME280;45172;55.006;73.460;2022-12-13T04:06:04;101771.06;;;-14.36;76.66
59375;BME280;45172;55.006;73.460;2022-12-13T04:08:30;101785.63;;;-14.35;76.99
59375;BME280;45172;55.006;73.460;2022-12-13T04:10:56;101791.66;;;-14.35;77.14
59375;BME280;45172;55.006;73.460;2022-12-13T04:13:23;101802.25;;;-14.32;77.39
59375;BME280;45172;55.006;73.460;2022-12-13T04:16:00;101800.50;;;-14.38;76.71
59375;BME280;45172;55.006;73.460;2022-12-13T04:18:26;101816.13;;;-14.48;76.74
59375;BME280;45172;55.006;73.460;2022-12-13T04:20:52;101833.94;;;-14.48;76.51
59375;BME280;45172;55.006;73.460;2022-12-13T04:23:18;101793.00;;;-14.68;76.39
59375;BME280;45172;55.006;73.460;2022-12-13T04:25:44;101826.31;;;-14.67;76.43
59375;BME280;45172;55.006;73.460;2022-12-13T04:28:16;101808.16;;;-14.76;76.52
59375;BME280;45172;55.006;73.460;2022-12-13T04:30:42;101822.63;;;-14.69;76.81
59375;BME280;45172;55.006;73.460;2022-12-13T04:33:18;101832.78;;;-14.69;76.75
59375;BME280;45172;55.006;73.460;2022-12-13T04:35:46;101830.72;;;-14.72;77.19
59375;BME280;45172;55.006;73.460;2022-12-13T04:38:12;101845.91;;;-14.60;76.93
59375;BME280;45172;55.006;73.460;2022-12-13T04:40:39;101841.69;;;-14.60;77.15
59375;BME280;45172;55.006;73.460;2022-12-13T04:43:05;101807.84;;;-14.72;77.15
59375;BME280;45172;55.006;73.460;2022-12-13T04:45:31;101827.38;;;-14.59;76.77
59375;BME280;45172;55.006;73.460;2022-12-13T04:48:01;101865.28;;;-14.36;77.16
59375;BME280;45172;55.006;73.460;2022-12-13T04:50:27;101848.88;;;-14.38;76.44
59375;BME280;45172;55.006;73.460;2022-12-13T04:52:53;101845.00;;;-14.42;76.72
59375;BME280;45172;55.006;73.460;2022-12-13T04:55:19;101854.13;;;-14.31;76.86
59375;BME280;45172;55.006;73.460;2022-12-13T04:57:51;101862.72;;;-14.36;76.25
59375;BME280;45172;55.006;73.460;2022-12-13T05:00:17;101849.44;;;-14.47;76.48
59375;BME280;45172;55.006;73.460;2022-12-13T05:02:53;101816.78;;;-14.62;76.85
59375;BME280;45172;55.006;73.460;2022-12-13T05:05:19;101855.16;;;-14.23;76.71
59375;BME280;45172;55.006;73.460;2022-12-13T05:07:45;101847.75;;;-14.22;76.23
59375;BME280;45172;55.006;73.460;2022-12-13T05:10:11;101857.22;;;-14.21;76.54
59375;BME280;45172;55.006;73.460;2022-12-13T05:12:37;101841.38;;;-14.31;76.75
59375;BME280;45172;55.006;73.460;2022-12-13T05:15:04;101832.59;;;-14.33;76.64
59375;BME280;45172;55.006;73.460;2022-12-13T05:17:31;101844.56;;;-14.26;76.36
59375;BME280;45172;55.006;73.460;2022-12-13T05:20:02;101842.84;;;-14.39;75.81
59375;BME280;45172;55.006;73.460;2022-12-13T05:22:29;101857.22;;;-14.39;76.41
59375;BME280;45172;55.006;73.460;2022-12-13T05:24:54;101839.41;;;-14.39;76.93
59375;BME280;45172;55.006;73.460;2022-12-13T05:27:21;101814.28;;;-14.49;76.80
59375;BME280;45172;55.006;73.460;2022-12-13T05:29:57;101844.28;;;-14.41;76.02
59375;BME280;45172;55.006;73.460;2022-12-13T05:32:24;101822.13;;;-14.66;76.20
59375;BME280;45172;55.006;73.460;2022-12-13T05:34:50;101878.94;;;-14.36;76.28
59375;BME280;45172;55.006;73.460;2022-12-13T05:37:16;101878.94;;;-14.36;76.04
59375;BME280;45172;55.006;73.460;2022-12-13T05:39:42;101862.22;;;-14.52;75.84
59375;BME280;45172;55.006;73.460;2022-12-13T05:42:08;101850.06;;;-14.79;76.00
59375;BME280;45172;55.006;73.460;2022-12-13T05:44:39;101884.16;;;-14.47;76.62
59375;BME280;45172;55.006;73.460;2022-12-13T05:47:05;101901.69;;;-14.43;76.71
59375;BME280;45172;55.006;73.460;2022-12-13T05:49:37;101888.34;;;-14.48;75.65
59375;BME280;45172;55.006;73.460;2022-12-13T05:52:03;101886.03;;;-14.70;75.55
59375;BME280;45172;55.006;73.460;2022-12-13T05:54:32;101879.19;;;-14.77;76.57
59375;BME280;45172;55.006;73.460;2022-12-13T05:57:08;101891.91;;;-14.77;75.55
59375;BME280;45172;55.006;73.460;2022-12-13T05:59:34;101893.41;;;-14.91;75.41
59375;BME280;45172;55.006;73.460;2022-12-13T06:02:05;101894.13;;;-14.92;76.16
59375;BME280;45172;55.006;73.460;2022-12-13T06:04:31;101895.78;;;-14.98;76.04
59375;BME280;45172;55.006;73.460;2022-12-13T06:06:58;101877.47;;;-14.90;76.58
59375;BME280;45172;55.006;73.460;2022-12-13T06:09:24;101874.00;;;-14.90;76.18
59375;BME280;45172;55.006;73.460;2022-12-13T06:11:49;101898.13;;;-14.75;76.09
59375;BME280;45172;55.006;73.460;2022-12-13T06:14:21;101877.03;;;-14.93;76.33
59375;BME280;45172;55.006;73.460;2022-12-13T06:16:47;101882.97;;;-14.87;76.13
59375;BME280;45172;55.006;73.460;2022-12-13T06:19:14;101913.09;;;-14.71;76.25
59375;BME280;45172;55.006;73.460;2022-12-13T06:21:40;101914.16;;;-14.82;75.33
59375;BME280;45172;55.006;73.460;2022-12-13T06:24:06;101905.88;;;-14.87;75.61
59375;BME280;45172;55.006;73.460;2022-12-13T06:26:33;101920.22;;;-14.87;75.13
59375;BME280;45172;55.006;73.460;2022-12-13T06:28:59;101913.75;;;-14.91;75.21
59375;BME280;45172;55.006;73.460;2022-12-13T06:31:25;101879.53;;;-15.17;74.92
59375;BME280;45172;55.006;73.460;2022-12-13T06:33:52;101912.41;;;-14.94;75.42
59375;BME280;45172;55.006;73.460;2022-12-13T06:36:18;101891.88;;;-14.96;75.18
59375;BME280;45172;55.006;73.460;2022-12-13T06:38:49;101874.78;;;-15.03;74.44
59375;BME280;45172;55.006;73.460;2022-12-13T06:41:15;101938.00;;;-14.87;73.89
59375;BME280;45172;55.006;73.460;2022-12-13T06:43:43;101935.00;;;-15.09;74.64
59375;BME280;45172;55.006;73.460;2022-12-13T06:46:10;101937.56;;;-15.15;74.17
59375;BME280;45172;55.006;73.460;2022-12-13T06:48:36;101929.28;;;-15.19;74.51
59375;BME280;45172;55.006;73.460;2022-12-13T06:51:04;101950.06;;;-15.16;74.27
59375;BME280;45172;55.006;73.460;2022-12-13T06:53:31;101946.63;;;-15.22;73.89
59375;BME280;45172;55.006;73.460;2022-12-13T06:56:05;101940.19;;;-15.26;74.58
59375;BME280;45172;55.006;73.460;2022-12-13T06:58:33;101947.34;;;-15.23;74.33
59375;BME280;45172;55.006;73.460;2022-12-13T07:01:04;101901.28;;;-15.44;74.44
59375;BME280;45172;55.006;73.460;2022-12-13T07:03:30;101928.47;;;-15.37;74.29
59375;BME280;45172;55.006;73.460;2022-12-13T07:06:04;101933.81;;;-15.35;74.26
59375;BME280;45172;55.006;73.460;2022-12-13T07:08:31;101960.63;;;-15.43;72.94
59375;BME280;45172;55.006;73.460;2022-12-13T07:10:57;101963.94;;;-15.50;72.97
59375;BME280;45172;55.006;73.460;2022-12-13T07:13:28;101909.63;;;-15.86;74.03
59375;BME280;45172;55.006;73.460;2022-12-13T07:15:59;101861.59;;;-16.26;73.36
59375;BME280;45172;55.006;73.460;2022-12-13T07:18:25;101918.72;;;-15.94;73.63
59375;BME280;45172;55.006;73.460;2022-12-13T07:20:52;101957.88;;;-15.86;73.46
59375;BME280;45172;55.006;73.460;2022-12-13T07:23:18;101942.56;;;-16.16;73.90
59375;BME280;45172;55.006;73.460;2022-12-13T07:25:54;101918.66;;;-16.41;73.27
59375;BME280;45172;55.006;73.460;2022-12-13T07:28:20;101939.88;;;-16.35;73.47
59375;BME280;45172;55.006;73.460;2022-12-13T07:30:47;101990.81;;;-16.22;73.87
59375;BME280;45172;55.006;73.460;2022-12-13T07:33:23;101995.69;;;-16.35;73.79
59375;BME280;45172;55.006;73.460;2022-12-13T07:36:04;101994.56;;;-16.60;73.75
59375;BME280;45172;55.006;73.460;2022-12-13T07:38:32;101985.13;;;-16.84;73.88
59375;BME280;45172;55.006;73.460;2022-12-13T07:41:09;101957.28;;;-17.07;74.11
59375;BME280;45172;55.006;73.460;2022-12-13T07:43:41;102004.50;;;-16.84;73.89
59375;BME280;45172;55.006;73.460;2022-12-13T07:46:08;101958.69;;;-17.20;74.59
59375;BME280;45172;55.006;73.460;2022-12-13T07:48:41;101974.53;;;-17.21;74.35
59375;BME280;45172;55.006;73.460;2022-12-13T07:51:09;102007.28;;;-17.23;74.01
59375;BME280;45172;55.006;73.460;2022-12-13T07:53:39;102013.50;;;-17.15;74.62
59375;BME280;45172;55.006;73.460;2022-12-13T07:56:16;102016.69;;;-17.33;74.34
59375;BME280;45172;55.006;73.460;2022-12-13T07:58:47;101997.28;;;-17.61;74.34
59375;BME280;45172;55.006;73.460;2022-12-13T08:01:19;102010.22;;;-17.48;74.93
59375;BME280;45172;55.006;73.460;2022-12-13T08:03:49;102010.84;;;-17.66;74.35
59375;BME280;45172;55.006;73.460;2022-12-13T08:06:17;101991.63;;;-17.93;74.17
59375;BME280;45172;55.006;73.460;2022-12-13T08:08:54;102057.56;;;-17.70;74.27
59375;BME280;45172;55.006;73.460;2022-12-13T08:11:20;102043.22;;;-17.86;73.69
59375;BME280;45172;55.006;73.460;2022-12-13T08:13:49;102033.75;;;-17.93;74.47
59375;BME280;45172;55.006;73.460;2022-12-13T08:16:15;102068.81;;;-17.79;74.66
59375;BME280;45172;55.006;73.460;2022-12-13T08:18:43;102055.16;;;-17.91;74.62
59375;BME280;45172;55.006;73.460;2022-12-13T08:21:14;102038.13;;;-17.98;74.74
59375;BME280;45172;55.006;73.460;2022-12-13T08:23:51;102059.81;;;-17.83;74.18
59375;BME280;45172;55.006;73.460;2022-12-13T08:26:18;102080.34;;;-17.70;74.83
59375;BME280;45172;55.006;73.460;2022-12-13T08:28:44;102087.94;;;-17.70;73.83
59375;BME280;45172;55.006;73.460;2022-12-13T08:31:11;102091.88;;;-17.66;74.53
59375;BME280;45172;55.006;73.460;2022-12-13T08:33:38;102096.50;;;-17.64;74.49
59375;BME280;45172;55.006;73.460;2022-12-13T08:36:09;102044.16;;;-17.86;74.24
59375;BME280;45172;55.006;73.460;2022-12-13T08:38:35;102100.16;;;-17.67;74.02
59375;BME280;45172;55.006;73.460;2022-12-13T08:41:13;102065.97;;;-17.92;74.07
59375;BME280;45172;55.006;73.460;2022-12-13T08:43:46;102054.38;;;-18.13;73.11
59375;BME280;45172;55.006;73.460;2022-12-13T08:46:12;102110.41;;;-17.88;73.16
59375;BME280;45172;55.006;73.460;2022-12-13T08:48:39;102098.38;;;-17.95;73.66
59375;BME280;45172;55.006;73.460;2022-12-13T08:51:07;102100.41;;;-18.10;73.70
59375;BME280;45172;55.006;73.460;2022-12-13T08:53:36;102100.09;;;-18.23;73.57
59375;BME280;45172;55.006;73.460;2022-12-13T08:56:04;102131.72;;;-18.04;74.30
59375;BME280;45172;55.006;73.460;2022-12-13T08:58:32;102131.25;;;-18.01;74.04
59375;BME280;45172;55.006;73.460;2022-12-13T09:00:58;102104.47;;;-18.22;73.66
59375;BME280;45172;55.006;73.460;2022-12-13T09:03:24;102145.72;;;-18.11;73.68
59375;BME280;45172;55.006;73.460;2022-12-13T09:05:55;102138.31;;;-18.15;73.71
59375;BME280;45172;55.006;73.460;2022-12-13T09:08:22;102140.38;;;-18.19;74.02
59375;BME280;45172;55.006;73.460;2022-12-13T09:10:58;102142.88;;;-18.24;74.25
59375;BME280;45172;55.006;73.460;2022-12-13T09:13:33;102163.78;;;-18.25;73.76
59375;BME280;45172;55.006;73.460;2022-12-13T09:16:07;102168.03;;;-18.41;73.44
59375;BME280;45172;55.006;73.460;2022-12-13T09:18:39;102154.41;;;-18.48;74.00
59375;BME280;45172;55.006;73.460;2022-12-13T09:21:10;102179.00;;;-18.47;73.61
59375;BME280;45172;55.006;73.460;2022-12-13T09:23:44;102129.91;;;-18.85;73.67
59375;BME280;45172;55.006;73.460;2022-12-13T09:26:12;102154.22;;;-18.65;73.14
59375;BME280;45172;55.006;73.460;2022-12-13T09:28:40;102159.13;;;-18.82;73.33
59375;BME280;45172;55.006;73.460;2022-12-13T09:31:14;102178.03;;;-18.74;72.58
59375;BME280;45172;55.006;73.460;2022-12-13T09:33:41;102177.78;;;-18.76;72.83
59375;BME280;45172;55.006;73.460;2022-12-13T09:36:11;102194.53;;;-18.82;73.56
59375;BME280;45172;55.006;73.460;2022-12-13T09:38:38;102177.69;;;-18.87;73.17
59375;BME280;45172;55.006;73.460;2022-12-13T09:43:47;102191.59;;;-18.95;72.70
59375;BME280;45172;55.006;73.460;2022-12-13T09:46:26;102208.09;;;-19.03;72.62
59375;BME280;45172;55.006;73.460;2022-12-13T09:48:54;102216.38;;;-19.04;72.92
59375;BME280;45172;55.006;73.460;2022-12-13T09:51:21;102214.63;;;-19.15;72.89
59375;BME280;45172;55.006;73.460;2022-12-13T09:53:51;102218.66;;;-19.21;72.37
59375;BME280;45172;55.006;73.460;2022-12-13T09:56:19;102243.44;;;-19.24;72.54
59375;BME280;45172;55.006;73.460;2022-12-13T09:58:52;102192.88;;;-19.61;72.78
59375;BME280;45172;55.006;73.460;2022-12-13T10:01:25;102210.13;;;-19.58;72.66
59375;BME280;45172;55.006;73.460;2022-12-13T10:03:53;102178.84;;;-19.95;71.86
59375;BME280;45172;55.006;73.460;2022-12-13T10:06:23;102192.56;;;-19.99;72.28
59375;BME280;45172;55.006;73.460;2022-12-13T10:09:05;102198.59;;;-19.93;72.17
59375;BME280;45172;55.006;73.460;2022-12-13T10:11:34;102216.09;;;-19.89;71.98
59375;BME280;45172;55.006;73.460;2022-12-13T10:14:10;102281.50;;;-19.59;71.69
59375;BME280;45172;55.006;73.460;2022-12-13T10:16:41;102279.03;;;-19.69;71.73
59375;BME280;45172;55.006;73.460;2022-12-13T10:19:19;102230.16;;;-20.16;71.69
59375;BME280;45172;55.006;73.460;2022-12-13T10:21:47;102208.00;;;-20.23;72.00
59375;BME280;45172;55.006;73.460;2022-12-13T10:24:26;102237.03;;;-20.15;72.14
59375;BME280;45172;55.006;73.460;2022-12-13T10:26:57;102235.56;;;-20.34;72.55
59375;BME280;45172;55.006;73.460;2022-12-13T10:29:25;102270.72;;;-20.15;71.79
59375;BME280;45172;55.006;73.460;2022-12-13T10:31:54;102264.13;;;-20.14;72.03
59375;BME280;45172;55.006;73.460;2022-12-13T10:34:27;102253.97;;;-20.30;72.44
59375;BME280;45172;55.006;73.460;2022-12-13T10:36:54;102273.97;;;-20.26;72.97
59375;BME280;45172;55.006;73.460;2022-12-13T10:39:41;102246.38;;;-20.45;72.36
59375;BME280;45172;55.006;73.460;2022-12-13T10:42:19;102190.53;;;-20.78;72.39
59375;BME280;45172;55.006;73.460;2022-12-13T10:45:29;102250.78;;;-20.54;72.57
59375;BME280;45172;55.006;73.460;2022-12-13T10:47:55;102334.84;;;-20.08;73.12
59375;BME280;45172;55.006;73.460;2022-12-13T10:50:31;102223.47;;;-20.82;72.94
59375;BME280;45172;55.006;73.460;2022-12-13T10:52:58;102307.91;;;-20.39;72.89
59375;BME280;45172;55.006;73.460;2022-12-13T10:55:35;102305.41;;;-20.39;73.03
59375;BME280;45172;55.006;73.460;2022-12-13T10:58:18;102286.47;;;-20.57;73.12
59375;BME280;45172;55.006;73.460;2022-12-13T11:00:49;102312.19;;;-20.44;73.14
59375;BME280;45172;55.006;73.460;2022-12-13T11:03:32;102281.72;;;-20.65;73.11
59375;BME280;45172;55.006;73.460;2022-12-13T11:06:13;102340.56;;;-20.45;73.11
59375;BME280;45172;55.006;73.460;2022-12-13T11:08:43;102314.88;;;-20.68;73.39
59375;BME280;45172;55.006;73.460;2022-12-13T11:11:17;102256.66;;;-20.95;73.49
59375;BME280;45172;55.006;73.460;2022-12-13T11:13:45;102313.22;;;-20.73;73.17
59375;BME280;45172;55.006;73.460;2022-12-13T11:16:33;102307.94;;;-20.84;73.23
59375;BME280;45172;55.006;73.460;2022-12-13T11:19:16;102326.75;;;-20.82;73.34
59375;BME280;45172;55.006;73.460;2022-12-13T11:21:47;102365.97;;;-20.69;73.23
59375;BME280;45172;55.006;73.460;2022-12-13T11:24:23;102312.09;;;-21.14;73.72
59375;BME280;45172;55.006;73.460;2022-12-13T11:27:19;102393.94;;;-20.57;73.61
59375;BME280;45172;55.006;73.460;2022-12-13T11:30:10;102404.44;;;-20.60;72.97
59375;BME280;45172;55.006;73.460;2022-12-13T11:35:27;102425.28;;;-20.71;72.90
59375;BME280;45172;55.006;73.460;2022-12-13T11:38:31;102419.16;;;-20.77;72.94
59375;BME280;45172;55.006;73.460;2022-12-13T11:41:16;102389.66;;;-21.08;72.93
59375;BME280;45172;55.006;73.460;2022-12-13T11:43:56;102418.84;;;-20.94;73.09
59375;BME280;45172;55.006;73.460;2022-12-13T11:46:35;102435.41;;;-21.00;72.75
59375;BME280;45172;55.006;73.460;2022-12-13T11:49:13;102444.41;;;-21.06;72.71
59375;BME280;45172;55.006;73.460;2022-12-13T11:51:57;102430.09;;;-21.31;72.36
59375;BME280;45172;55.006;73.460;2022-12-13T11:54:53;102473.03;;;-21.26;71.79
59375;BME280;45172;55.006;73.460;2022-12-13T11:57:45;102456.91;;;-21.56;71.51
59375;BME280;45172;55.006;73.460;2022-12-13T12:00:42;102456.09;;;-21.70;71.69
59375;BME280;45172;55.006;73.460;2022-12-13T12:03:20;102498.00;;;-21.51;72.15
59375;BME280;45172;55.006;73.460;2022-12-13T12:06:07;102467.88;;;-21.75;71.96
59375;BME280;45172;55.006;73.460;2022-12-13T12:09:01;102474.84;;;-21.88;71.78
59375;BME280;45172;55.006;73.460;2022-12-13T12:11:41;102501.19;;;-21.86;72.17
59375;BME280;45172;55.006;73.460;2022-12-13T12:14:42;102493.34;;;-21.97;72.46
59375;BME280;45172;55.006;73.460;2022-12-13T12:17:14;102492.25;;;-22.03;72.38
59375;BME280;45172;55.006;73.460;2022-12-13T12:19:49;102531.22;;;-21.92;72.45
59375;BME280;45172;55.006;73.460;2022-12-13T12:32:52;102567.09;;;-22.16;71.79
59375;BME280;45172;55.006;73.460;2022-12-13T12:38:28;102585.06;;;-22.19;72.12
59375;BME280;45172;55.006;73.460;2022-12-13T12:41:23;102589.91;;;-22.25;72.00
59375;BME280;45172;55.006;73.460;2022-12-13T12:47:08;102596.72;;;-22.34;72.11
59375;BME280;45172;55.006;73.460;2022-12-13T12:55:21;102621.69;;;-22.53;72.39
59375;BME280;45172;55.006;73.460;2022-12-13T12:58:25;102605.78;;;-22.58;72.15
59375;BME280;45172;55.006;73.460;2022-12-13T13:03:34;102612.50;;;-22.63;72.51
59375;BME280;45172;55.006;73.460;2022-12-13T13:08:59;102601.97;;;-22.84;72.38
59375;BME280;45172;55.006;73.460;2022-12-13T13:11:39;102618.91;;;-22.83;72.52
59375;BME280;45172;55.006;73.460;2022-12-13T13:16:53;102585.00;;;-23.13;72.25
59375;BME280;45172;55.006;73.460;2022-12-13T13:21:55;102627.22;;;-23.06;72.58
59375;BME280;45172;55.006;73.460;2022-12-13T13:24:24;102608.13;;;-23.24;72.60
59375;BME280;45172;55.006;73.460;2022-12-13T13:26:54;102653.63;;;-23.08;72.64
59375;BME280;45172;55.006;73.460;2022-12-13T13:29:31;102621.25;;;-23.35;72.61
59375;BME280;45172;55.006;73.460;2022-12-13T13:32:04;102634.75;;;-23.34;72.79
59375;BME280;45172;55.006;73.460;2022-12-13T13:34:35;102528.31;;;-23.95;72.99
59375;BME280;45172;55.006;73.460;2022-12-13T13:37:03;102627.03;;;-23.58;72.60
59375;BME280;45172;55.006;73.460;2022-12-13T13:40:00;102680.38;;;-23.27;72.87
59375;BME280;45172;55.006;73.460;2022-12-13T13:42:31;102664.06;;;-23.43;72.78
59375;BME280;45172;55.006;73.460;2022-12-13T13:45:22;102685.28;;;-23.37;72.92
59375;BME280;45172;55.006;73.460;2022-12-13T13:48:19;102697.63;;;-23.43;72.99
59375;BME280;45172;55.006;73.460;2022-12-13T14:30:58;102719.28;;;-24.02;73.35
59375;BME280;45172;55.006;73.460;2022-12-13T14:33:25;102765.75;;;-23.86;73.26
59375;BME280;45172;55.006;73.460;2022-12-13T14:35:55;102742.94;;;-24.09;73.26
59375;BME280;45172;55.006;73.460;2022-12-13T14:38:28;102765.50;;;-23.91;73.23